createdAt,value
2019-03-31T00:00:13.865Z,23.47
2019-03-31T00:02:43.415Z,24.07
2019-03-31T00:05:13.013Z,24.37
2019-03-31T00:07:42.529Z,23.63
2019-03-31T00:10:11.837Z,22.10
2019-03-31T00:12:41.238Z,22.40
2019-03-31T00:15:10.940Z,21.40
2019-03-31T00:17:40.860Z,22.20
2019-03-31T00:20:10.272Z,21.53
2019-03-31T00:22:39.765Z,22.40
2019-03-31T00:25:09.183Z,21.57
2019-03-31T00:27:38.682Z,22.87
2019-03-31T00:30:08.517Z,21.97
2019-03-31T00:32:38.055Z,21.93
2019-03-31T00:35:07.716Z,19.83
2019-03-31T00:37:37.216Z,19.73
2019-03-31T00:40:07.961Z,21.13
2019-03-31T00:42:37.458Z,19.73
2019-03-31T00:45:07.796Z,21.10
2019-03-31T00:47:37.306Z,20.20
2019-03-31T00:50:07.833Z,22.50
2019-03-31T00:52:37.220Z,23.53
2019-03-31T00:55:07.243Z,24.97
2019-03-31T00:57:36.748Z,23.53
2019-03-31T01:00:09.653Z,25.03
2019-03-31T01:02:38.945Z,25.70
2019-03-31T01:05:08.650Z,25.33
2019-03-31T01:07:38.155Z,24.30
2019-03-31T01:10:08.061Z,24.07
2019-03-31T01:12:37.715Z,23.57
2019-03-31T01:15:11.458Z,23.80
2019-03-31T01:17:40.989Z,23.53
2019-03-31T01:20:10.596Z,23.40
2019-03-31T01:22:40.054Z,21.43
2019-03-31T01:25:09.622Z,21.83
2019-03-31T01:27:39.320Z,22.03
2019-03-31T01:30:10.775Z,22.13
2019-03-31T01:32:40.384Z,24.97
2019-03-31T01:35:10.721Z,24.87
2019-03-31T01:37:40.128Z,28.03
2019-03-31T01:40:09.930Z,27.40
2019-03-31T01:42:39.435Z,27.97
2019-03-31T01:45:10.139Z,26.77
2019-03-31T01:47:39.687Z,26.00
2019-03-31T01:50:11.743Z,24.30
2019-03-31T01:52:41.155Z,22.37
2019-03-31T01:55:13.635Z,22.97
2019-03-31T01:57:43.122Z,21.43
2019-03-31T02:00:20.634Z,22.50
2019-03-31T02:02:50.125Z,22.47
2019-03-31T02:05:19.641Z,20.80
2019-03-31T02:07:49.050Z,23.23
2019-03-31T02:10:18.863Z,22.40
2019-03-31T02:12:49.380Z,22.20
2019-03-31T02:15:18.797Z,21.20
2019-03-31T02:17:48.097Z,20.97
2019-03-31T02:20:17.596Z,20.47
2019-03-31T02:22:47.111Z,20.83
2019-03-31T02:25:16.714Z,21.10
2019-03-31T02:27:46.211Z,21.17
2019-03-31T02:30:16.643Z,20.63
2019-03-31T02:32:46.065Z,21.73
2019-03-31T02:35:15.764Z,20.77
2019-03-31T02:37:45.173Z,19.77
2019-03-31T02:40:14.669Z,20.13
2019-03-31T02:42:43.982Z,20.77
2019-03-31T02:45:13.610Z,20.00
2019-03-31T02:47:43.084Z,19.73
2019-03-31T02:50:15.469Z,19.97
2019-03-31T02:52:44.877Z,19.20
2019-03-31T02:55:14.264Z,18.93
2019-03-31T02:57:43.988Z,20.07
2019-03-31T03:00:13.798Z,18.63
2019-03-31T03:02:43.408Z,18.17
2019-03-31T03:05:19.778Z,17.97
2019-03-31T03:07:46.116Z,18.93
2019-03-31T03:10:15.309Z,18.90
2019-03-31T03:12:48.592Z,18.47
2019-03-31T03:15:32.760Z,18.40
2019-03-31T03:18:02.055Z,19.37
2019-03-31T03:20:31.976Z,17.80
2019-03-31T03:23:01.473Z,18.60
2019-03-31T03:25:30.973Z,18.37
2019-03-31T03:28:00.285Z,17.47
2019-03-31T03:30:29.931Z,18.20
2019-03-31T03:33:14.788Z,18.97
2019-03-31T03:35:30.546Z,19.00
2019-03-31T03:38:00.037Z,17.97
2019-03-31T03:40:29.266Z,17.10
2019-03-31T03:42:58.962Z,18.00
2019-03-31T03:45:28.162Z,18.70
2019-03-31T03:47:57.654Z,19.33
2019-03-31T03:50:26.965Z,18.13
2019-03-31T03:52:56.773Z,19.07
2019-03-31T03:55:26.281Z,19.57
2019-03-31T03:57:55.784Z,19.43
2019-03-31T04:00:25.198Z,20.13
2019-03-31T04:02:54.698Z,19.80
2019-03-31T04:05:24.211Z,19.40
2019-03-31T04:07:53.713Z,18.97
2019-03-31T04:10:45.650Z,18.63
2019-03-31T04:13:15.364Z,18.50
2019-03-31T04:15:44.854Z,19.77
2019-03-31T04:18:14.169Z,18.03
2019-03-31T04:20:43.493Z,20.20
2019-03-31T04:23:12.968Z,18.50
2019-03-31T04:25:42.177Z,19.50
2019-03-31T04:28:11.583Z,18.90
2019-03-31T04:33:16.566Z,18.63
2019-03-31T04:35:45.776Z,19.43
2019-03-31T04:38:15.270Z,19.70
2019-03-31T04:40:45.086Z,19.70
2019-03-31T04:43:14.592Z,18.63
2019-03-31T04:45:43.803Z,19.33
2019-03-31T04:48:13.302Z,19.27
2019-03-31T04:50:42.812Z,20.10
2019-03-31T04:53:12.045Z,19.77
2019-03-31T04:55:41.191Z,19.07
2019-03-31T04:58:10.706Z,19.67
2019-03-31T05:00:39.960Z,19.83
2019-03-31T05:03:09.359Z,18.37
2019-03-31T05:05:38.803Z,20.27
2019-03-31T05:08:08.171Z,19.67
2019-03-31T05:10:37.565Z,20.53
2019-03-31T05:13:07.178Z,20.37
2019-03-31T05:15:36.363Z,20.23
2019-03-31T05:18:05.537Z,19.60
2019-03-31T05:20:35.044Z,18.40
2019-03-31T05:23:04.346Z,20.27
2019-03-31T05:25:34.671Z,20.40
2019-03-31T05:28:04.064Z,20.70
2019-03-31T05:30:33.578Z,20.33
2019-03-31T05:33:02.985Z,19.43
2019-03-31T05:35:32.390Z,18.80
2019-03-31T05:38:02.089Z,19.80
2019-03-31T05:40:31.505Z,18.77
2019-03-31T05:43:00.996Z,19.73
2019-03-31T05:45:30.421Z,20.10
2019-03-31T05:47:59.804Z,18.43
2019-03-31T05:50:29.128Z,19.27
2019-03-31T05:52:58.422Z,19.57
2019-03-31T05:55:27.723Z,19.43
2019-03-31T05:57:57.113Z,19.33
2019-03-31T06:00:42.905Z,18.83
2019-03-31T06:03:12.311Z,19.00
2019-03-31T06:05:41.727Z,19.33
2019-03-31T06:08:11.115Z,20.23
2019-03-31T06:10:40.622Z,21.83
2019-03-31T06:13:09.937Z,20.07
2019-03-31T06:15:39.326Z,19.47
2019-03-31T06:18:08.537Z,18.80
2019-03-31T06:20:37.719Z,19.03
2019-03-31T06:23:07.039Z,21.20
2019-03-31T06:25:36.356Z,19.57
2019-03-31T06:28:05.835Z,21.50
2019-03-31T06:30:35.346Z,20.30
2019-03-31T06:33:04.657Z,20.67
2019-03-31T06:35:34.184Z,21.07
2019-03-31T06:38:03.773Z,22.23
2019-03-31T06:40:35.337Z,21.97
2019-03-31T06:43:04.831Z,20.63
2019-03-31T06:45:34.339Z,21.47
2019-03-31T06:48:03.939Z,25.90
2019-03-31T06:50:33.144Z,24.63
2019-03-31T06:53:02.645Z,29.43
2019-03-31T06:55:32.149Z,33.97
2019-03-31T06:58:01.435Z,35.70
2019-03-31T07:00:30.673Z,36.53
2019-03-31T07:03:00.363Z,34.37
2019-03-31T07:05:29.762Z,33.20
2019-03-31T07:07:59.284Z,33.30
2019-03-31T07:10:28.667Z,31.93
2019-03-31T07:12:59.816Z,32.77
2019-03-31T07:15:29.231Z,34.50
2019-03-31T07:17:58.730Z,33.30
2019-03-31T07:20:27.890Z,32.37
2019-03-31T07:22:57.123Z,33.00
2019-03-31T07:25:26.748Z,32.50
2019-03-31T07:27:57.868Z,32.77
2019-03-31T07:30:27.535Z,34.17
2019-03-31T07:32:57.211Z,33.77
2019-03-31T07:35:26.734Z,33.10
2019-03-31T07:37:56.335Z,34.23
2019-03-31T07:40:25.629Z,34.07
2019-03-31T07:42:55.179Z,36.83
2019-03-31T07:45:25.149Z,33.70
2019-03-31T07:47:54.650Z,34.10
2019-03-31T07:50:24.060Z,33.27
2019-03-31T07:52:54.168Z,33.63
2019-03-31T07:55:24.505Z,31.80
2019-03-31T07:57:55.046Z,32.10
2019-03-31T08:00:25.061Z,32.87
2019-03-31T08:02:54.460Z,33.90
2019-03-31T08:05:32.890Z,31.43
2019-03-31T08:07:55.906Z,32.67
2019-03-31T08:10:25.947Z,32.83
2019-03-31T08:12:55.440Z,33.33
2019-03-31T08:15:25.063Z,32.83
2019-03-31T08:17:54.276Z,32.27
2019-03-31T08:20:24.297Z,32.03
2019-03-31T08:22:56.874Z,32.53
2019-03-31T08:25:24.424Z,33.20
2019-03-31T08:27:53.925Z,34.00
2019-03-31T08:30:23.228Z,31.70
2019-03-31T08:32:52.723Z,33.83
2019-03-31T08:35:22.235Z,32.53
2019-03-31T08:37:51.737Z,33.50
2019-03-31T08:40:22.688Z,31.43
2019-03-31T08:42:51.991Z,33.17
2019-03-31T08:45:21.290Z,32.93
2019-03-31T08:47:52.369Z,31.40
2019-03-31T08:50:21.943Z,34.53
2019-03-31T08:52:51.327Z,34.07
2019-03-31T08:55:20.548Z,32.67
2019-03-31T08:57:50.209Z,34.73
2019-03-31T09:00:28.976Z,32.13
2019-03-31T09:02:58.796Z,32.63
2019-03-31T09:05:28.287Z,33.80
2019-03-31T09:07:57.744Z,32.87
2019-03-31T09:10:27.006Z,31.07
2019-03-31T09:12:57.148Z,32.40
2019-03-31T09:15:26.628Z,33.03
2019-03-31T09:18:00.232Z,33.27
2019-03-31T09:20:29.737Z,34.40
2019-03-31T09:22:59.241Z,33.77
2019-03-31T09:25:28.540Z,34.20
2019-03-31T09:27:57.851Z,33.77
2019-03-31T09:30:27.370Z,35.07
2019-03-31T09:32:56.849Z,34.40
2019-03-31T09:35:26.162Z,34.47
2019-03-31T09:37:55.658Z,33.47
2019-03-31T09:40:25.073Z,33.30
2019-03-31T09:42:54.279Z,35.70
2019-03-31T09:45:23.574Z,35.57
2019-03-31T09:47:52.990Z,36.10
2019-03-31T09:50:22.574Z,32.47
2019-03-31T09:52:53.525Z,34.17
2019-03-31T09:55:23.237Z,34.10
2019-03-31T09:57:52.850Z,32.03
2019-03-31T10:00:50.045Z,32.27
2019-03-31T10:03:24.740Z,34.60
2019-03-31T10:05:54.225Z,32.63
2019-03-31T10:08:23.836Z,33.07
2019-03-31T10:10:53.453Z,29.93
2019-03-31T10:13:23.055Z,35.30
2019-03-31T10:15:52.568Z,32.53
2019-03-31T10:18:22.494Z,33.03
2019-03-31T10:20:51.919Z,28.93
2019-03-31T10:23:21.292Z,32.07
2019-03-31T10:25:51.315Z,29.87
2019-03-31T10:28:20.848Z,29.97
2019-03-31T10:30:50.520Z,29.20
2019-03-31T10:33:20.062Z,28.40
2019-03-31T10:35:55.650Z,28.13
2019-03-31T10:38:25.187Z,28.60
2019-03-31T10:40:54.694Z,29.57
2019-03-31T10:43:23.962Z,27.63
2019-03-31T10:45:53.510Z,30.50
2019-03-31T10:48:23.010Z,29.70
2019-03-31T10:50:52.509Z,27.30
2019-03-31T10:53:21.822Z,29.00
2019-03-31T10:55:51.320Z,29.00
2019-03-31T10:58:20.826Z,29.57
2019-03-31T11:00:50.135Z,28.73
2019-03-31T11:03:19.739Z,28.13
2019-03-31T11:05:49.243Z,27.90
2019-03-31T11:08:18.655Z,27.33
2019-03-31T11:10:48.155Z,28.97
2019-03-31T11:13:17.569Z,30.00
2019-03-31T11:15:47.069Z,29.20
2019-03-31T11:18:16.476Z,30.13
2019-03-31T11:20:45.793Z,29.30
2019-03-31T11:23:25.929Z,29.00
2019-03-31T11:25:55.336Z,27.87
2019-03-31T11:28:24.739Z,28.10
2019-03-31T11:30:56.469Z,26.80
2019-03-31T11:33:26.002Z,26.37
2019-03-31T11:35:55.307Z,26.50
2019-03-31T11:38:27.198Z,25.07
2019-03-31T11:40:56.893Z,27.23
2019-03-31T11:43:26.282Z,26.13
2019-03-31T11:45:55.601Z,23.47
2019-03-31T11:48:24.888Z,25.27
2019-03-31T11:50:54.604Z,23.53
2019-03-31T11:53:24.200Z,23.97
2019-03-31T11:55:53.609Z,23.63
2019-03-31T11:58:23.334Z,22.03
2019-03-31T12:00:54.556Z,21.80
2019-03-31T12:03:24.200Z,20.10
2019-03-31T12:05:53.788Z,20.37
2019-03-31T12:08:23.301Z,19.23
2019-03-31T12:10:53.098Z,18.30
2019-03-31T12:13:22.616Z,17.97
2019-03-31T12:15:53.559Z,17.87
2019-03-31T12:18:23.055Z,18.40
2019-03-31T12:20:52.465Z,18.77
2019-03-31T12:23:22.105Z,18.10
2019-03-31T12:25:53.334Z,17.23
2019-03-31T12:28:23.029Z,19.17
2019-03-31T12:30:52.437Z,18.40
2019-03-31T12:33:21.940Z,17.87
2019-03-31T12:35:51.545Z,16.67
2019-03-31T12:38:21.052Z,15.77
2019-03-31T12:40:57.532Z,14.33
2019-03-31T12:43:27.039Z,14.67
2019-03-31T12:45:56.643Z,14.00
2019-03-31T12:48:26.140Z,13.50
2019-03-31T12:50:55.548Z,13.10
2019-03-31T12:53:24.850Z,13.83
2019-03-31T12:56:00.319Z,11.80
2019-03-31T12:58:25.599Z,13.07
2019-03-31T13:00:55.008Z,12.90
2019-03-31T13:03:32.293Z,12.70
2019-03-31T13:06:01.797Z,13.20
2019-03-31T13:08:31.207Z,12.07
2019-03-31T13:11:00.918Z,11.20
2019-03-31T13:13:30.461Z,12.10
2019-03-31T13:15:59.828Z,11.67
2019-03-31T13:18:29.130Z,13.10
2019-03-31T13:20:58.739Z,12.37
2019-03-31T13:23:28.043Z,11.63
2019-03-31T13:25:57.343Z,12.67
2019-03-31T13:28:27.147Z,12.40
2019-03-31T13:30:56.650Z,11.30
2019-03-31T13:33:26.065Z,12.23
2019-03-31T13:35:55.275Z,12.07
2019-03-31T13:38:24.762Z,11.30
2019-03-31T13:40:54.379Z,11.20
2019-03-31T13:43:23.783Z,12.70
2019-03-31T13:45:53.362Z,11.30
2019-03-31T13:48:22.885Z,12.43
2019-03-31T13:50:52.402Z,11.80
2019-03-31T13:53:21.711Z,13.63
2019-03-31T13:55:51.320Z,13.20
2019-03-31T13:58:22.945Z,11.70
2019-03-31T14:00:52.064Z,12.20
2019-03-31T14:03:21.476Z,12.10
2019-03-31T14:05:51.184Z,11.67
2019-03-31T14:08:26.011Z,12.33
2019-03-31T14:10:51.642Z,11.67
2019-03-31T14:13:21.134Z,11.70
2019-03-31T14:15:50.456Z,11.13
2019-03-31T14:18:19.934Z,11.57
2019-03-31T14:20:49.141Z,11.40
2019-03-31T14:23:18.352Z,11.13
2019-03-31T14:25:47.647Z,12.77
2019-03-31T14:28:17.053Z,11.63
2019-03-31T14:30:46.654Z,11.83
2019-03-31T14:33:16.163Z,11.40
2019-03-31T14:35:45.677Z,10.30
2019-03-31T14:38:15.306Z,10.80
2019-03-31T14:40:44.909Z,9.77
2019-03-31T14:43:14.488Z,9.10
2019-03-31T14:45:44.005Z,9.17
2019-03-31T14:48:14.130Z,8.70
2019-03-31T14:50:43.428Z,9.00
2019-03-31T14:53:21.945Z,10.60
2019-03-31T14:55:51.244Z,9.63
2019-03-31T14:58:20.659Z,9.30
2019-03-31T15:00:50.130Z,8.53
2019-03-31T15:03:19.458Z,9.03
2019-03-31T15:05:48.863Z,10.63
2019-03-31T15:08:18.384Z,8.70
2019-03-31T15:10:47.883Z,8.53
2019-03-31T15:13:17.380Z,8.93
2019-03-31T15:15:46.874Z,9.33
2019-03-31T15:18:17.839Z,8.13
2019-03-31T15:20:47.037Z,7.40
2019-03-31T15:23:16.534Z,7.07
2019-03-31T15:25:48.497Z,6.93
2019-03-31T15:28:18.399Z,7.07
2019-03-31T15:30:48.128Z,6.80
2019-03-31T15:33:17.628Z,6.60
2019-03-31T15:35:47.129Z,5.87
2019-03-31T15:38:18.009Z,5.87
2019-03-31T15:40:48.593Z,5.33
2019-03-31T15:43:20.364Z,5.10
2019-03-31T15:45:49.669Z,5.33
2019-03-31T15:48:18.811Z,5.77
2019-03-31T15:50:48.036Z,5.13
2019-03-31T15:53:17.262Z,4.90
2019-03-31T15:55:46.617Z,5.17
2019-03-31T15:58:16.074Z,5.53
2019-03-31T16:00:45.373Z,4.67
2019-03-31T16:03:14.575Z,5.10
2019-03-31T16:05:44.069Z,5.13
2019-03-31T16:08:13.473Z,5.13
2019-03-31T16:10:42.786Z,4.47
2019-03-31T16:13:12.393Z,5.13
2019-03-31T16:15:42.045Z,4.77
2019-03-31T16:18:11.713Z,4.60
2019-03-31T16:20:41.121Z,5.43
2019-03-31T16:23:10.640Z,5.57
2019-03-31T16:25:42.067Z,4.73
2019-03-31T16:28:11.479Z,4.73
2019-03-31T16:30:40.974Z,4.93
2019-03-31T16:33:10.547Z,5.67
2019-03-31T16:35:40.010Z,5.37
2019-03-31T16:38:09.520Z,5.27
2019-03-31T16:40:39.058Z,5.30
2019-03-31T16:43:08.562Z,5.50
2019-03-31T16:45:37.747Z,5.17
2019-03-31T16:48:07.177Z,5.60
2019-03-31T16:50:36.753Z,5.93
2019-03-31T16:53:06.768Z,4.70
2019-03-31T16:55:36.139Z,7.10
2019-03-31T16:58:05.614Z,5.30
2019-03-31T17:00:35.005Z,5.93
2019-03-31T17:03:04.337Z,6.83
2019-03-31T17:05:33.546Z,5.77
2019-03-31T17:08:04.193Z,5.87
2019-03-31T17:10:33.638Z,6.70
2019-03-31T17:13:03.097Z,7.17
2019-03-31T17:15:32.333Z,6.67
2019-03-31T17:18:01.752Z,6.93
2019-03-31T17:20:30.923Z,6.90
2019-03-31T17:23:00.097Z,5.70
2019-03-31T17:25:29.928Z,5.80
2019-03-31T17:27:59.432Z,5.87
2019-03-31T17:30:28.629Z,5.87
2019-03-31T17:32:58.074Z,5.67
2019-03-31T17:35:27.489Z,5.43
2019-03-31T17:37:56.675Z,5.43
2019-03-31T17:40:26.062Z,6.20
2019-03-31T17:42:55.583Z,5.90
2019-03-31T17:45:24.669Z,7.20
2019-03-31T17:47:53.781Z,7.33
2019-03-31T17:50:22.901Z,6.80
2019-03-31T17:52:52.260Z,6.73
2019-03-31T17:55:21.343Z,7.13
2019-03-31T17:57:50.737Z,7.73
2019-03-31T18:00:19.959Z,7.37
2019-03-31T18:02:49.105Z,7.53
2019-03-31T18:05:18.434Z,7.20
2019-03-31T18:07:47.533Z,7.10
2019-03-31T18:10:21.296Z,7.17
2019-03-31T18:12:47.833Z,6.43
2019-03-31T18:15:17.245Z,6.63
2019-03-31T18:17:46.643Z,7.87
2019-03-31T18:20:15.768Z,7.00
2019-03-31T18:22:44.872Z,7.60
2019-03-31T18:25:13.973Z,7.13
2019-03-31T18:27:43.379Z,8.70
2019-03-31T18:30:12.671Z,8.90
2019-03-31T18:32:41.810Z,7.90
2019-03-31T18:35:11.419Z,8.70
2019-03-31T18:37:40.540Z,8.23
2019-03-31T18:40:09.726Z,7.60
2019-03-31T18:42:39.102Z,7.50
2019-03-31T18:45:08.458Z,7.73
2019-03-31T18:47:37.595Z,7.63
2019-03-31T18:50:06.969Z,7.93
2019-03-31T18:52:36.331Z,7.30
2019-03-31T18:55:08.855Z,8.43
2019-03-31T18:57:39.828Z,8.20
2019-03-31T19:00:16.243Z,8.17
2019-03-31T19:02:49.771Z,7.77
2019-03-31T19:05:20.666Z,7.57
2019-03-31T19:08:00.345Z,8.53
2019-03-31T19:10:49.632Z,8.87
2019-03-31T19:13:22.141Z,9.20
2019-03-31T19:15:55.686Z,8.63
2019-03-31T19:18:44.274Z,7.77
2019-03-31T19:23:47.469Z,8.00
2019-03-31T19:26:18.527Z,8.20
2019-03-31T19:28:49.667Z,7.60
2019-03-31T19:31:20.737Z,7.47
2019-03-31T19:34:06.996Z,7.63
2019-03-31T19:36:46.613Z,7.30
2019-03-31T19:39:33.373Z,6.60
2019-03-31T19:42:06.851Z,7.03
2019-03-31T19:44:50.032Z,5.83
2019-03-31T19:47:29.494Z,5.10
2019-03-31T19:50:00.566Z,5.47
2019-03-31T19:52:40.208Z,5.80
2019-03-31T19:55:11.446Z,5.67
2019-03-31T19:57:58.268Z,5.13
2019-03-31T20:00:35.076Z,4.60
2019-03-31T20:03:23.898Z,4.17
2019-03-31T20:06:00.712Z,4.80
2019-03-31T20:08:34.340Z,5.07
2019-03-31T20:11:05.389Z,4.97
2019-03-31T20:13:54.623Z,4.80
2019-03-31T20:16:28.439Z,4.10
2019-03-31T20:18:59.467Z,4.30
2019-03-31T20:21:33.119Z,4.67
2019-03-31T20:24:06.894Z,4.47
2019-03-31T20:26:53.091Z,4.10
2019-03-31T20:29:29.865Z,3.30
2019-03-31T20:32:09.970Z,3.50
2019-03-31T20:34:43.671Z,3.50
2019-03-31T20:37:22.963Z,3.43
2019-03-31T20:40:09.166Z,2.60
2019-03-31T20:42:56.577Z,2.87
2019-03-31T20:45:25.725Z,2.97
2019-03-31T20:47:54.974Z,3.10
2019-03-31T20:50:24.379Z,2.93
2019-03-31T20:52:54.127Z,2.20
2019-03-31T20:55:23.313Z,2.30
2019-03-31T20:57:52.812Z,2.93
2019-03-31T21:00:22.294Z,2.47
2019-03-31T21:02:51.497Z,2.10
2019-03-31T21:05:20.994Z,2.00
2019-03-31T21:07:50.400Z,2.40
2019-03-31T21:10:19.575Z,1.97
2019-03-31T21:12:49.017Z,2.97
2019-03-31T21:15:18.161Z,2.33
2019-03-31T21:17:47.338Z,2.30
2019-03-31T21:20:16.725Z,2.27
2019-03-31T21:22:45.896Z,2.00
2019-03-31T21:25:15.301Z,2.43
2019-03-31T21:27:45.084Z,1.67
2019-03-31T21:30:14.810Z,2.07
2019-03-31T21:32:44.083Z,2.10
2019-03-31T21:35:13.632Z,2.20
2019-03-31T21:37:43.093Z,1.80
2019-03-31T21:40:12.645Z,1.93
2019-03-31T21:42:42.390Z,2.10
2019-03-31T21:45:11.609Z,1.67
2019-03-31T21:47:40.767Z,1.80
2019-03-31T21:50:10.289Z,2.10
2019-03-31T21:52:39.714Z,1.70
2019-03-31T21:55:09.345Z,1.43
2019-03-31T21:57:38.503Z,2.13
2019-03-31T22:00:11.065Z,1.97
2019-03-31T22:02:40.620Z,1.70
2019-03-31T22:05:10.315Z,2.00
2019-03-31T22:07:39.703Z,2.00
2019-03-31T22:10:09.178Z,1.87
2019-03-31T22:12:38.321Z,1.63
2019-03-31T22:15:07.716Z,1.80
2019-03-31T22:17:36.896Z,1.77
2019-03-31T22:20:08.156Z,1.93
2019-03-31T22:22:37.350Z,2.30
2019-03-31T22:25:07.731Z,2.00
2019-03-31T22:27:37.142Z,2.47
2019-03-31T22:30:09.472Z,1.97
2019-03-31T22:32:38.937Z,1.77
2019-03-31T22:35:08.288Z,1.57
2019-03-31T22:37:37.368Z,1.67
2019-03-31T22:40:07.603Z,1.77
2019-03-31T22:42:37.031Z,1.93
2019-03-31T22:45:06.465Z,2.20
2019-03-31T22:47:35.819Z,1.70
2019-03-31T22:50:06.101Z,1.90
2019-03-31T22:52:35.422Z,1.80
2019-03-31T22:55:06.813Z,1.93
2019-03-31T22:57:35.924Z,1.53
2019-03-31T23:00:06.285Z,1.87
2019-03-31T23:02:35.376Z,2.30
2019-03-31T23:05:04.746Z,1.80
2019-03-31T23:07:33.827Z,1.93
2019-03-31T23:10:03.289Z,1.60
2019-03-31T23:12:32.619Z,2.33
2019-03-31T23:15:01.975Z,2.27
2019-03-31T23:17:31.331Z,1.87
2019-03-31T23:20:00.723Z,1.83
2019-03-31T23:22:29.812Z,1.87
2019-03-31T23:24:59.145Z,2.10
2019-03-31T23:27:28.501Z,1.80
2019-03-31T23:29:57.833Z,1.70
2019-03-31T23:32:27.285Z,1.70
2019-03-31T23:34:56.640Z,1.90
2019-03-31T23:37:25.990Z,2.27
2019-03-31T23:39:55.323Z,2.00
2019-03-31T23:42:24.450Z,1.90
2019-03-31T23:44:53.531Z,2.10
2019-03-31T23:47:22.639Z,2.07
2019-03-31T23:49:51.722Z,1.70
2019-03-31T23:52:20.854Z,1.77
2019-03-31T23:54:49.927Z,1.97
2019-03-31T23:57:20.703Z,1.90
2019-03-31T23:59:50.028Z,2.30
